createdAt,value
2023-06-24T00:03:47.421Z,13.75
2023-06-24T00:07:48.839Z,13.64
2023-06-24T00:11:50.258Z,13.94
2023-06-24T00:15:52.982Z,13.94
2023-06-24T00:19:54.347Z,13.84
2023-06-24T00:23:55.713Z,13.77
2023-06-24T00:27:57.103Z,13.69
2023-06-24T00:31:59.903Z,13.80
2023-06-24T00:36:01.287Z,13.87
2023-06-24T00:40:02.751Z,13.68
2023-06-24T00:44:04.253Z,13.56
2023-06-24T00:48:07.213Z,13.73
2023-06-24T00:52:08.808Z,13.63
2023-06-24T00:56:10.713Z,13.57
2023-06-24T01:00:12.671Z,13.47
2023-06-24T01:04:15.393Z,13.36
2023-06-24T01:08:16.810Z,13.38
2023-06-24T01:12:18.189Z,13.40
2023-06-24T01:16:24.202Z,13.36
2023-06-24T01:20:30.595Z,13.39
2023-06-24T01:24:35.239Z,13.34
2023-06-24T01:28:51.244Z,13.35
2023-06-24T01:32:55.701Z,13.27
2023-06-24T01:37:01.775Z,13.24
2023-06-24T01:41:04.105Z,13.36
2023-06-24T01:45:07.242Z,13.31
2023-06-24T01:49:12.767Z,13.25
2023-06-24T01:53:15.280Z,13.20
2023-06-24T01:57:18.541Z,13.23
2023-06-24T02:01:20.278Z,13.25
2023-06-24T02:05:24.340Z,13.30
2023-06-24T02:09:26.254Z,13.30
2023-06-24T02:13:28.369Z,13.21
2023-06-24T02:17:29.784Z,13.17
2023-06-24T02:21:32.928Z,13.11
2023-06-24T02:25:35.258Z,13.15
2023-06-24T02:29:38.172Z,13.16
2023-06-24T02:33:39.862Z,13.19
2023-06-24T02:42:26.461Z,13.20
2023-06-24T02:46:28.529Z,13.21
2023-06-24T02:50:30.468Z,13.24
2023-06-24T02:54:32.129Z,13.21
2023-06-24T02:58:37.271Z,13.27
2023-06-24T03:02:39.260Z,13.24
2023-06-24T03:06:41.019Z,13.26
2023-06-24T03:10:42.387Z,13.24
2023-06-24T03:14:45.079Z,13.20
2023-06-24T03:18:46.430Z,13.24
2023-06-24T03:22:47.772Z,13.17
2023-06-24T03:26:49.123Z,13.17
2023-06-24T03:30:51.810Z,13.16
2023-06-24T03:34:53.152Z,13.23
2023-06-24T03:38:54.654Z,13.28
2023-06-24T03:42:56.059Z,13.37
2023-06-24T03:46:58.778Z,13.39
2023-06-24T03:51:00.187Z,13.43
2023-06-24T03:55:01.603Z,13.43
2023-06-24T03:59:05.683Z,13.44
2023-06-24T04:03:09.449Z,13.47
2023-06-24T04:07:10.929Z,13.49
2023-06-24T04:11:12.356Z,13.63
2023-06-24T04:15:13.770Z,14.04
2023-06-24T04:19:16.552Z,14.02
2023-06-24T04:23:17.956Z,14.19
2023-06-24T04:27:19.332Z,14.61
2023-06-24T04:31:20.785Z,14.69
2023-06-24T04:35:23.573Z,14.45
2023-06-24T04:39:24.982Z,14.86
2023-06-24T04:43:26.436Z,15.06
2023-06-24T04:47:27.880Z,15.23
2023-06-24T04:51:30.656Z,15.53
2023-06-24T04:55:32.291Z,15.73
2023-06-24T04:59:33.782Z,15.85
2023-06-24T05:03:35.173Z,16.06
2023-06-24T05:07:37.901Z,16.07
2023-06-24T05:11:39.341Z,16.30
2023-06-24T05:15:40.723Z,16.67
2023-06-24T05:19:42.106Z,16.91
2023-06-24T05:23:44.839Z,17.00
2023-06-24T05:27:46.248Z,16.67
2023-06-24T05:31:47.670Z,16.75
2023-06-24T05:35:49.140Z,17.11
2023-06-24T05:39:51.861Z,17.26
2023-06-24T05:44:01.910Z,17.95
2023-06-24T05:48:03.404Z,18.85
2023-06-24T05:52:05.028Z,18.93
2023-06-24T05:56:07.768Z,18.87
2023-06-24T06:00:09.576Z,20.28
2023-06-24T06:04:11.051Z,20.68
2023-06-24T06:08:12.461Z,20.18
2023-06-24T06:12:15.188Z,20.80
2023-06-24T06:16:16.594Z,21.83
2023-06-24T06:20:17.985Z,22.40
2023-06-24T06:24:19.373Z,20.15
2023-06-24T06:28:22.095Z,20.62
2023-06-24T06:32:23.489Z,19.98
2023-06-24T06:36:24.891Z,20.81
2023-06-24T06:40:26.296Z,23.41
2023-06-24T06:44:29.050Z,24.71
2023-06-24T06:48:30.434Z,24.45
2023-06-24T06:52:31.821Z,25.65
2023-06-24T06:56:33.224Z,26.43
2023-06-24T07:00:35.980Z,23.93
2023-06-24T07:04:37.375Z,26.19
2023-06-24T07:08:38.747Z,26.72
2023-06-24T07:12:40.201Z,28.00
2023-06-24T07:16:42.977Z,27.26
2023-06-24T07:20:44.377Z,27.68
2023-06-24T07:24:45.773Z,28.82
2023-06-24T07:29:00.097Z,26.43
2023-06-24T07:33:06.960Z,28.21
2023-06-24T07:37:19.415Z,28.52
2023-06-24T07:41:24.354Z,29.81
2023-06-24T07:45:25.745Z,30.76
2023-06-24T07:49:28.451Z,27.02
2023-06-24T07:53:29.844Z,27.46
2023-06-24T07:57:31.420Z,26.21
2023-06-24T08:01:32.848Z,24.61
2023-06-24T08:05:35.794Z,25.32
2023-06-24T08:09:37.340Z,27.04
2023-06-24T08:13:38.973Z,24.55
2023-06-24T08:17:40.415Z,21.90
2023-06-24T08:21:43.190Z,24.24
2023-06-24T08:25:44.589Z,24.73
2023-06-24T08:29:46.010Z,26.05
2023-06-24T08:33:47.393Z,25.28
2023-06-24T08:37:50.145Z,25.45
2023-06-24T08:41:51.538Z,26.35
2023-06-24T08:45:53.492Z,28.40
2023-06-24T08:50:00.632Z,27.47
2023-06-24T08:54:03.516Z,26.55
2023-06-24T08:58:04.988Z,27.25
2023-06-24T09:02:06.472Z,25.43
2023-06-24T09:06:07.947Z,24.26
2023-06-24T09:10:11.041Z,23.15
2023-06-24T09:14:12.786Z,24.74
2023-06-24T09:18:14.608Z,25.70
2023-06-24T09:22:16.095Z,26.02
2023-06-24T09:26:18.828Z,28.07
2023-06-24T09:30:21.333Z,26.12
2023-06-24T09:34:22.945Z,25.90
2023-06-24T09:38:33.005Z,23.70
2023-06-24T09:42:35.759Z,23.64
2023-06-24T09:46:37.230Z,25.25
2023-06-24T09:50:38.672Z,24.79
2023-06-24T09:54:40.396Z,24.27
2023-06-24T09:58:44.382Z,23.67
2023-06-24T10:02:46.098Z,24.81
2023-06-24T10:06:47.670Z,23.70
2023-06-24T10:10:49.109Z,22.55
2023-06-24T10:14:51.873Z,23.36
2023-06-24T10:18:53.260Z,23.93
2023-06-24T10:22:54.633Z,24.59
2023-06-24T10:26:56.052Z,24.92
2023-06-24T10:30:58.820Z,25.48
2023-06-24T10:35:00.259Z,25.71
2023-06-24T10:39:02.320Z,25.24
2023-06-24T10:43:23.706Z,24.42
2023-06-24T10:47:27.084Z,24.18
2023-06-24T10:51:28.518Z,24.69
2023-06-24T10:55:29.894Z,25.57
2023-06-24T10:59:34.797Z,25.70
2023-06-24T11:03:40.846Z,25.71
2023-06-24T11:07:42.326Z,25.56
2023-06-24T11:11:43.735Z,25.55
2023-06-24T11:15:45.115Z,25.28
2023-06-24T11:19:47.856Z,25.61
2023-06-24T11:23:49.248Z,25.24
2023-06-24T11:27:50.930Z,25.12
2023-06-24T11:31:52.308Z,24.52
2023-06-24T11:35:55.044Z,25.39
2023-06-24T11:40:01.629Z,25.37
2023-06-24T11:44:03.078Z,24.74
2023-06-24T11:48:04.826Z,25.37
2023-06-24T11:52:07.863Z,24.81
2023-06-24T11:56:09.251Z,24.17
2023-06-24T12:00:13.312Z,24.67
2023-06-24T12:04:14.915Z,25.00
2023-06-24T12:08:19.019Z,25.05
2023-06-24T12:12:20.400Z,25.32
2023-06-24T12:16:21.762Z,25.96
2023-06-24T12:20:23.235Z,25.45
2023-06-24T12:24:26.011Z,25.80
2023-06-24T12:28:27.453Z,26.08
2023-06-24T12:32:28.926Z,25.76
2023-06-24T12:36:30.375Z,26.03
2023-06-24T12:40:33.157Z,26.22
2023-06-24T12:44:34.590Z,25.63
2023-06-24T12:48:35.984Z,26.21
2023-06-24T12:52:37.680Z,25.52
2023-06-24T12:56:40.421Z,26.19
2023-06-24T13:00:41.847Z,26.33
2023-06-24T13:04:43.221Z,25.84
2023-06-24T13:08:44.600Z,26.07
2023-06-24T13:12:47.525Z,24.73
2023-06-24T13:16:49.430Z,25.18
2023-06-24T13:20:51.044Z,25.61
2023-06-24T13:24:52.447Z,25.09
2023-06-24T13:28:55.235Z,25.13
2023-06-24T13:32:56.682Z,25.07
2023-06-24T13:36:58.141Z,25.37
2023-06-24T13:40:59.523Z,24.89
2023-06-24T13:45:02.408Z,24.60
2023-06-24T13:49:06.210Z,25.64
2023-06-24T13:53:07.961Z,25.62
2023-06-24T13:57:09.337Z,25.76
2023-06-24T14:01:12.157Z,26.09
2023-06-24T14:05:13.584Z,26.45
2023-06-24T14:09:14.976Z,26.43
2023-06-24T14:13:16.367Z,26.21
2023-06-24T14:17:19.096Z,26.21
2023-06-24T14:21:20.482Z,26.32
2023-06-24T14:25:21.855Z,26.29
2023-06-24T14:29:23.245Z,26.60
2023-06-24T14:33:25.984Z,26.51
2023-06-24T14:37:27.387Z,26.74
2023-06-24T14:41:28.788Z,26.29
2023-06-24T14:45:30.202Z,26.42
2023-06-24T14:49:32.940Z,26.41
2023-06-24T14:53:34.325Z,26.57
2023-06-24T14:57:36.454Z,26.02
2023-06-24T15:01:37.894Z,26.41
2023-06-24T15:05:40.641Z,25.82
2023-06-24T15:09:42.039Z,26.54
2023-06-24T15:13:43.438Z,26.40
2023-06-24T15:17:44.866Z,26.51
2023-06-24T15:21:47.642Z,25.99
2023-06-24T15:25:49.042Z,26.39
2023-06-24T15:29:50.439Z,26.38
2023-06-24T15:33:51.856Z,26.11
2023-06-24T15:37:54.608Z,26.19
2023-06-24T15:41:55.998Z,26.44
2023-06-24T15:45:57.538Z,25.67
2023-06-24T15:49:59.027Z,26.12
2023-06-24T15:54:01.771Z,25.75
2023-06-24T15:58:03.158Z,25.31
2023-06-24T16:02:04.662Z,25.83
2023-06-24T16:06:06.094Z,26.31
2023-06-24T16:10:09.596Z,26.22
2023-06-24T16:14:11.054Z,25.88
2023-06-24T16:18:12.499Z,26.12
2023-06-24T16:22:13.913Z,26.22
2023-06-24T16:26:16.649Z,25.72
2023-06-24T16:30:18.037Z,25.67
2023-06-24T16:34:24.345Z,25.57
2023-06-24T16:38:26.460Z,25.81
2023-06-24T16:42:29.255Z,26.01
2023-06-24T16:46:30.667Z,26.07
2023-06-24T16:50:32.070Z,26.08
2023-06-24T16:54:33.487Z,26.31
2023-06-24T16:58:36.396Z,26.22
2023-06-24T17:02:37.897Z,25.94
2023-06-24T17:06:39.748Z,26.01
2023-06-24T17:10:41.398Z,25.63
2023-06-24T17:14:44.164Z,25.62
2023-06-24T17:18:45.558Z,25.49
2023-06-24T17:22:46.944Z,25.25
2023-06-24T17:26:48.331Z,25.40
2023-06-24T17:30:51.290Z,25.77
2023-06-24T17:34:52.786Z,25.19
2023-06-24T17:38:54.183Z,25.46
2023-06-24T17:42:55.648Z,25.33
2023-06-24T17:46:58.427Z,24.21
2023-06-24T17:50:59.811Z,24.51
2023-06-24T17:55:01.216Z,24.41
2023-06-24T17:59:02.649Z,23.73
2023-06-24T18:03:05.448Z,23.98
2023-06-24T18:07:06.940Z,23.98
2023-06-24T18:11:08.379Z,23.26
2023-06-24T18:15:10.196Z,22.71
2023-06-24T18:19:12.915Z,22.49
2023-06-24T18:23:14.323Z,22.74
2023-06-24T18:27:15.714Z,22.54
2023-06-24T18:31:17.280Z,21.75
2023-06-24T18:35:20.158Z,21.52
2023-06-24T18:39:21.574Z,20.78
2023-06-24T18:43:22.960Z,20.28
2023-06-24T18:47:24.349Z,19.96
2023-06-24T18:51:27.112Z,19.78
2023-06-24T18:55:28.511Z,19.42
2023-06-24T18:59:29.920Z,19.12
2023-06-24T19:03:31.515Z,18.93
2023-06-24T19:07:34.389Z,18.56
2023-06-24T19:11:36.045Z,18.34
2023-06-24T19:15:37.461Z,18.08
2023-06-24T19:19:38.854Z,17.84
2023-06-24T19:23:41.599Z,17.53
2023-06-24T19:27:43.011Z,17.38
2023-06-24T19:31:44.500Z,17.11
2023-06-24T19:35:45.930Z,16.97
2023-06-24T19:39:48.681Z,16.78
2023-06-24T19:43:50.191Z,16.61
2023-06-24T19:47:52.558Z,16.50
2023-06-24T19:51:53.924Z,16.27
2023-06-24T19:55:56.640Z,16.13
2023-06-24T19:59:58.039Z,16.00
2023-06-24T20:03:59.400Z,15.79
2023-06-24T20:08:00.824Z,15.73
2023-06-24T20:12:03.781Z,15.65
2023-06-24T20:16:05.278Z,15.49
2023-06-24T20:20:07.395Z,15.39
2023-06-24T20:24:08.783Z,15.22
2023-06-24T20:28:11.535Z,15.17
2023-06-24T20:32:12.933Z,15.11
2023-06-24T20:36:14.313Z,14.98
2023-06-24T20:40:15.695Z,14.94
2023-06-24T20:44:18.462Z,14.84
2023-06-24T20:48:19.905Z,14.70
2023-06-24T20:52:23.015Z,14.62
2023-06-24T20:56:24.527Z,14.62
2023-06-24T21:00:27.266Z,14.54
2023-06-24T21:04:28.661Z,14.46
2023-06-24T21:08:30.100Z,14.37
2023-06-24T21:12:31.493Z,14.42
2023-06-24T21:16:34.296Z,14.32
2023-06-24T21:20:36.061Z,14.27
2023-06-24T21:24:37.708Z,14.26
2023-06-24T21:28:39.089Z,14.15
2023-06-24T21:32:41.867Z,14.08
2023-06-24T21:36:43.267Z,14.05
2023-06-24T21:40:44.775Z,14.06
2023-06-24T21:44:46.159Z,13.99
2023-06-24T21:48:48.912Z,13.89
2023-06-24T21:52:50.351Z,13.84
2023-06-24T21:56:51.750Z,13.78
2023-06-24T22:00:53.170Z,13.70
2023-06-24T22:04:55.933Z,13.61
2023-06-24T22:08:57.860Z,13.50
2023-06-24T22:12:59.269Z,13.46
2023-06-24T22:17:05.013Z,13.41
2023-06-24T22:21:07.769Z,13.41
2023-06-24T22:25:09.780Z,13.37
2023-06-24T22:29:11.192Z,13.34
2023-06-24T22:33:12.598Z,13.32
2023-06-24T22:37:15.372Z,13.17
2023-06-24T22:41:16.878Z,13.17
2023-06-24T22:45:18.283Z,13.11
2023-06-24T22:49:19.669Z,13.20
2023-06-24T22:53:22.442Z,13.29
2023-06-24T22:57:23.837Z,13.42
2023-06-24T23:01:25.246Z,13.33
2023-06-24T23:05:27.057Z,13.36
2023-06-24T23:09:30.175Z,13.21
2023-06-24T23:13:32.255Z,13.22
2023-06-24T23:17:33.919Z,13.07
2023-06-24T23:21:35.579Z,13.10
2023-06-24T23:25:38.677Z,13.08
2023-06-24T23:29:40.869Z,12.96
2023-06-24T23:33:42.414Z,12.93
2023-06-24T23:37:44.024Z,13.04
2023-06-24T23:41:47.043Z,12.98
2023-06-24T23:45:49.273Z,12.78
2023-06-24T23:49:50.717Z,12.60
2023-06-24T23:53:52.112Z,12.55
2023-06-24T23:57:54.860Z,12.52
